sensor_id;sensor_type;location;lat;lon;timestamp;P1;durP1;ratioP1;P2;durP2;ratioP2
8086;SDS011;4086;54.412;9.980;2023-03-01T00:01:00;32.93;;;15.63;;
8086;SDS011;4086;54.412;9.980;2023-03-01T00:03:27;48.93;;;15.00;;
8086;SDS011;4086;54.412;9.980;2023-03-01T00:05:53;39.37;;;14.47;;
8086;SDS011;4086;54.412;9.980;2023-03-01T00:08:21;58.77;;;14.63;;
8086;SDS011;4086;54.412;9.980;2023-03-01T00:10:48;32.23;;;13.33;;
8086;SDS011;4086;54.412;9.980;2023-03-01T00:13:14;44.70;;;13.57;;
8086;SDS011;4086;54.412;9.980;2023-03-01T00:15:40;30.23;;;13.17;;
8086;SDS011;4086;54.412;9.980;2023-03-01T00:18:07;27.67;;;12.60;;
8086;SDS011;4086;54.412;9.980;2023-03-01T00:20:34;42.80;;;13.67;;
8086;SDS011;4086;54.412;9.980;2023-03-01T00:23:00;18.50;;;12.33;;
8086;SDS011;4086;54.412;9.980;2023-03-01T00:25:28;17.27;;;11.97;;
8086;SDS011;4086;54.412;9.980;2023-03-01T00:27:54;27.33;;;13.90;;
8086;SDS011;4086;54.412;9.980;2023-03-01T00:30:20;28.33;;;13.83;;
8086;SDS011;4086;54.412;9.980;2023-03-01T00:32:47;25.80;;;13.23;;
8086;SDS011;4086;54.412;9.980;2023-03-01T00:35:13;28.43;;;14.63;;
8086;SDS011;4086;54.412;9.980;2023-03-01T00:37:40;19.87;;;13.20;;
8086;SDS011;4086;54.412;9.980;2023-03-01T00:40:07;22.70;;;13.70;;
8086;SDS011;4086;54.412;9.980;2023-03-01T00:42:36;21.30;;;13.00;;
8086;SDS011;4086;54.412;9.980;2023-03-01T00:45:03;23.53;;;13.43;;
8086;SDS011;4086;54.412;9.980;2023-03-01T00:47:32;20.17;;;13.13;;
8086;SDS011;4086;54.412;9.980;2023-03-01T00:49:59;19.77;;;13.23;;
8086;SDS011;4086;54.412;9.980;2023-03-01T00:52:25;20.03;;;12.40;;
8086;SDS011;4086;54.412;9.980;2023-03-01T00:54:52;19.47;;;12.67;;
8086;SDS011;4086;54.412;9.980;2023-03-01T00:57:18;34.03;;;14.17;;
8086;SDS011;4086;54.412;9.980;2023-03-01T00:59:46;27.17;;;13.10;;
8086;SDS011;4086;54.412;9.980;2023-03-01T01:02:12;21.13;;;12.40;;
8086;SDS011;4086;54.412;9.980;2023-03-01T01:04:39;20.17;;;12.13;;
8086;SDS011;4086;54.412;9.980;2023-03-01T01:07:05;18.50;;;12.10;;
8086;SDS011;4086;54.412;9.980;2023-03-01T01:09:31;19.93;;;12.23;;
8086;SDS011;4086;54.412;9.980;2023-03-01T01:11:58;21.20;;;11.73;;
8086;SDS011;4086;54.412;9.980;2023-03-01T01:14:24;22.83;;;11.13;;
8086;SDS011;4086;54.412;9.980;2023-03-01T01:16:52;16.93;;;10.53;;
8086;SDS011;4086;54.412;9.980;2023-03-01T01:19:18;21.67;;;11.03;;
8086;SDS011;4086;54.412;9.980;2023-03-01T01:21:45;16.03;;;11.17;;
8086;SDS011;4086;54.412;9.980;2023-03-01T01:24:13;17.77;;;11.43;;
8086;SDS011;4086;54.412;9.980;2023-03-01T01:26:39;17.47;;;11.07;;
8086;SDS011;4086;54.412;9.980;2023-03-01T01:29:06;16.67;;;10.80;;
8086;SDS011;4086;54.412;9.980;2023-03-01T01:31:33;16.90;;;11.40;;
8086;SDS011;4086;54.412;9.980;2023-03-01T01:34:02;13.63;;;10.13;;
8086;SDS011;4086;54.412;9.980;2023-03-01T01:36:30;16.83;;;10.53;;
8086;SDS011;4086;54.412;9.980;2023-03-01T01:38:56;15.50;;;10.47;;
8086;SDS011;4086;54.412;9.980;2023-03-01T01:41:23;18.77;;;11.40;;
8086;SDS011;4086;54.412;9.980;2023-03-01T01:46:39;23.47;;;10.73;;
8086;SDS011;4086;54.412;9.980;2023-03-01T01:49:11;19.07;;;9.47;;
8086;SDS011;4086;54.412;9.980;2023-03-01T01:51:44;15.93;;;10.50;;
8086;SDS011;4086;54.412;9.980;2023-03-01T01:54:14;14.43;;;9.70;;
8086;SDS011;4086;54.412;9.980;2023-03-01T01:56:42;14.30;;;10.40;;
8086;SDS011;4086;54.412;9.980;2023-03-01T01:59:10;22.90;;;9.80;;
8086;SDS011;4086;54.412;9.980;2023-03-01T02:01:37;15.37;;;10.07;;
8086;SDS011;4086;54.412;9.980;2023-03-01T02:04:04;19.77;;;9.90;;
8086;SDS011;4086;54.412;9.980;2023-03-01T02:06:33;20.50;;;9.70;;
8086;SDS011;4086;54.412;9.980;2023-03-01T02:09:02;15.07;;;10.17;;
8086;SDS011;4086;54.412;9.980;2023-03-01T02:11:31;15.47;;;10.07;;
8086;SDS011;4086;54.412;9.980;2023-03-01T02:13:58;17.43;;;9.57;;
8086;SDS011;4086;54.412;9.980;2023-03-01T02:16:25;16.63;;;9.27;;
8086;SDS011;4086;54.412;9.980;2023-03-01T02:18:51;17.63;;;9.67;;
8086;SDS011;4086;54.412;9.980;2023-03-01T02:21:23;14.90;;;9.63;;
8086;SDS011;4086;54.412;9.980;2023-03-01T02:23:56;17.37;;;9.07;;
8086;SDS011;4086;54.412;9.980;2023-03-01T02:26:27;17.50;;;8.70;;
8086;SDS011;4086;54.412;9.980;2023-03-01T02:28:57;20.30;;;8.33;;
8086;SDS011;4086;54.412;9.980;2023-03-01T02:31:23;18.23;;;8.93;;
8086;SDS011;4086;54.412;9.980;2023-03-01T02:34:09;13.20;;;8.23;;
8086;SDS011;4086;54.412;9.980;2023-03-01T02:36:37;11.17;;;7.93;;
8086;SDS011;4086;54.412;9.980;2023-03-01T02:39:06;29.87;;;8.73;;
8086;SDS011;4086;54.412;9.980;2023-03-01T02:41:39;20.97;;;8.53;;
8086;SDS011;4086;54.412;9.980;2023-03-01T02:44:08;14.17;;;9.07;;
8086;SDS011;4086;54.412;9.980;2023-03-01T02:46:41;21.10;;;8.97;;
8086;SDS011;4086;54.412;9.980;2023-03-01T02:49:16;29.20;;;9.43;;
8086;SDS011;4086;54.412;9.980;2023-03-01T02:51:46;22.70;;;9.23;;
8086;SDS011;4086;54.412;9.980;2023-03-01T02:54:21;18.53;;;10.27;;
8086;SDS011;4086;54.412;9.980;2023-03-01T02:56:50;16.73;;;9.57;;
8086;SDS011;4086;54.412;9.980;2023-03-01T02:59:19;13.87;;;9.10;;
8086;SDS011;4086;54.412;9.980;2023-03-01T03:01:47;15.07;;;9.13;;
8086;SDS011;4086;54.412;9.980;2023-03-01T03:04:14;14.17;;;9.00;;
8086;SDS011;4086;54.412;9.980;2023-03-01T03:06:42;13.73;;;8.33;;
8086;SDS011;4086;54.412;9.980;2023-03-01T03:09:09;30.77;;;9.97;;
8086;SDS011;4086;54.412;9.980;2023-03-01T03:11:36;12.60;;;8.70;;
8086;SDS011;4086;54.412;9.980;2023-03-01T03:14:04;16.53;;;9.13;;
8086;SDS011;4086;54.412;9.980;2023-03-01T03:16:32;12.60;;;8.53;;
8086;SDS011;4086;54.412;9.980;2023-03-01T03:18:58;16.83;;;9.37;;
8086;SDS011;4086;54.412;9.980;2023-03-01T03:21:30;16.07;;;9.43;;
8086;SDS011;4086;54.412;9.980;2023-03-01T03:23:56;14.00;;;8.93;;
8086;SDS011;4086;54.412;9.980;2023-03-01T03:26:23;16.73;;;9.77;;
8086;SDS011;4086;54.412;9.980;2023-03-01T03:28:49;14.50;;;9.70;;
8086;SDS011;4086;54.412;9.980;2023-03-01T03:31:15;16.77;;;9.87;;
8086;SDS011;4086;54.412;9.980;2023-03-01T03:33:43;22.37;;;10.27;;
8086;SDS011;4086;54.412;9.980;2023-03-01T03:36:13;14.03;;;9.07;;
8086;SDS011;4086;54.412;9.980;2023-03-01T03:38:43;15.93;;;9.57;;
8086;SDS011;4086;54.412;9.980;2023-03-01T03:41:10;22.67;;;9.50;;
8086;SDS011;4086;54.412;9.980;2023-03-01T03:43:38;18.67;;;9.43;;
8086;SDS011;4086;54.412;9.980;2023-03-01T03:46:08;14.53;;;9.10;;
8086;SDS011;4086;54.412;9.980;2023-03-01T03:48:35;12.30;;;7.90;;
8086;SDS011;4086;54.412;9.980;2023-03-01T03:51:04;17.40;;;8.00;;
8086;SDS011;4086;54.412;9.980;2023-03-01T03:53:31;17.67;;;7.80;;
8086;SDS011;4086;54.412;9.980;2023-03-01T03:55:58;13.17;;;8.27;;
8086;SDS011;4086;54.412;9.980;2023-03-01T03:58:24;10.80;;;7.90;;
8086;SDS011;4086;54.412;9.980;2023-03-01T04:00:52;15.90;;;8.00;;
8086;SDS011;4086;54.412;9.980;2023-03-01T04:03:20;12.90;;;8.73;;
8086;SDS011;4086;54.412;9.980;2023-03-01T04:05:48;15.83;;;8.83;;
8086;SDS011;4086;54.412;9.980;2023-03-01T04:08:16;18.20;;;8.83;;
8086;SDS011;4086;54.412;9.980;2023-03-01T04:10:45;14.83;;;9.30;;
8086;SDS011;4086;54.412;9.980;2023-03-01T04:13:13;12.33;;;8.13;;
8086;SDS011;4086;54.412;9.980;2023-03-01T04:15:41;12.17;;;8.40;;
8086;SDS011;4086;54.412;9.980;2023-03-01T04:18:08;12.93;;;8.40;;
8086;SDS011;4086;54.412;9.980;2023-03-01T04:20:35;18.07;;;8.67;;
8086;SDS011;4086;54.412;9.980;2023-03-01T04:23:03;13.97;;;8.57;;
8086;SDS011;4086;54.412;9.980;2023-03-01T04:25:37;17.57;;;8.40;;
8086;SDS011;4086;54.412;9.980;2023-03-01T04:28:04;17.50;;;8.17;;
8086;SDS011;4086;54.412;9.980;2023-03-01T04:30:31;27.63;;;8.43;;
8086;SDS011;4086;54.412;9.980;2023-03-01T04:33:00;12.67;;;8.70;;
8086;SDS011;4086;54.412;9.980;2023-03-01T04:35:27;15.70;;;9.23;;
8086;SDS011;4086;54.412;9.980;2023-03-01T04:37:54;21.80;;;8.80;;
8086;SDS011;4086;54.412;9.980;2023-03-01T04:40:20;13.40;;;8.13;;
8086;SDS011;4086;54.412;9.980;2023-03-01T04:42:48;15.87;;;9.07;;
8086;SDS011;4086;54.412;9.980;2023-03-01T04:45:14;13.17;;;8.03;;
8086;SDS011;4086;54.412;9.980;2023-03-01T04:47:41;23.97;;;8.03;;
8086;SDS011;4086;54.412;9.980;2023-03-01T04:50:09;14.90;;;6.73;;
8086;SDS011;4086;54.412;9.980;2023-03-01T04:52:36;26.00;;;8.03;;
8086;SDS011;4086;54.412;9.980;2023-03-01T04:55:03;13.77;;;7.80;;
8086;SDS011;4086;54.412;9.980;2023-03-01T04:57:30;13.07;;;7.97;;
8086;SDS011;4086;54.412;9.980;2023-03-01T04:59:58;16.80;;;8.60;;
8086;SDS011;4086;54.412;9.980;2023-03-01T05:02:25;18.07;;;8.30;;
8086;SDS011;4086;54.412;9.980;2023-03-01T05:04:51;12.17;;;7.30;;
8086;SDS011;4086;54.412;9.980;2023-03-01T05:07:22;12.37;;;8.03;;
8086;SDS011;4086;54.412;9.980;2023-03-01T05:09:49;21.67;;;8.20;;
8086;SDS011;4086;54.412;9.980;2023-03-01T05:12:16;25.70;;;7.93;;
8086;SDS011;4086;54.412;9.980;2023-03-01T05:14:42;12.50;;;7.97;;
8086;SDS011;4086;54.412;9.980;2023-03-01T05:17:10;14.10;;;7.60;;
8086;SDS011;4086;54.412;9.980;2023-03-01T05:19:36;18.20;;;7.93;;
8086;SDS011;4086;54.412;9.980;2023-03-01T05:22:02;53.97;;;9.10;;
8086;SDS011;4086;54.412;9.980;2023-03-01T05:24:30;18.20;;;7.23;;
8086;SDS011;4086;54.412;9.980;2023-03-01T05:26:58;12.77;;;7.63;;
8086;SDS011;4086;54.412;9.980;2023-03-01T05:29:25;36.50;;;7.57;;
8086;SDS011;4086;54.412;9.980;2023-03-01T05:31:52;19.20;;;7.80;;
8086;SDS011;4086;54.412;9.980;2023-03-01T05:34:22;28.40;;;8.17;;
8086;SDS011;4086;54.412;9.980;2023-03-01T05:36:50;13.67;;;6.77;;
8086;SDS011;4086;54.412;9.980;2023-03-01T05:39:18;54.27;;;8.20;;
8086;SDS011;4086;54.412;9.980;2023-03-01T05:41:44;11.43;;;7.37;;
8086;SDS011;4086;54.412;9.980;2023-03-01T05:44:11;22.47;;;8.10;;
8086;SDS011;4086;54.412;9.980;2023-03-01T05:46:38;12.83;;;7.57;;
8086;SDS011;4086;54.412;9.980;2023-03-01T05:49:04;11.53;;;7.57;;
8086;SDS011;4086;54.412;9.980;2023-03-01T05:51:32;10.83;;;7.53;;
8086;SDS011;4086;54.412;9.980;2023-03-01T05:53:59;12.87;;;7.87;;
8086;SDS011;4086;54.412;9.980;2023-03-01T05:56:25;11.93;;;7.67;;
8086;SDS011;4086;54.412;9.980;2023-03-01T05:58:52;14.17;;;8.30;;
8086;SDS011;4086;54.412;9.980;2023-03-01T06:01:18;13.93;;;7.43;;
8086;SDS011;4086;54.412;9.980;2023-03-01T06:03:44;15.40;;;8.33;;
8086;SDS011;4086;54.412;9.980;2023-03-01T06:06:11;13.73;;;8.13;;
8086;SDS011;4086;54.412;9.980;2023-03-01T06:08:39;15.57;;;7.50;;
8086;SDS011;4086;54.412;9.980;2023-03-01T06:11:05;10.70;;;6.87;;
8086;SDS011;4086;54.412;9.980;2023-03-01T06:13:32;23.10;;;7.53;;
8086;SDS011;4086;54.412;9.980;2023-03-01T06:15:59;12.70;;;7.67;;
8086;SDS011;4086;54.412;9.980;2023-03-01T06:18:25;20.03;;;8.07;;
8086;SDS011;4086;54.412;9.980;2023-03-01T06:20:54;14.67;;;7.30;;
8086;SDS011;4086;54.412;9.980;2023-03-01T06:23:21;16.33;;;7.13;;
8086;SDS011;4086;54.412;9.980;2023-03-01T06:25:49;10.00;;;6.77;;
8086;SDS011;4086;54.412;9.980;2023-03-01T06:28:15;14.17;;;7.00;;
8086;SDS011;4086;54.412;9.980;2023-03-01T06:30:42;10.00;;;6.80;;
8086;SDS011;4086;54.412;9.980;2023-03-01T06:33:08;11.10;;;7.10;;
8086;SDS011;4086;54.412;9.980;2023-03-01T06:35:35;14.30;;;7.23;;
8086;SDS011;4086;54.412;9.980;2023-03-01T06:38:02;12.77;;;6.73;;
8086;SDS011;4086;54.412;9.980;2023-03-01T06:40:31;15.40;;;8.30;;
8086;SDS011;4086;54.412;9.980;2023-03-01T06:43:01;50.50;;;8.47;;
8086;SDS011;4086;54.412;9.980;2023-03-01T06:45:28;20.60;;;7.70;;
8086;SDS011;4086;54.412;9.980;2023-03-01T06:48:01;29.47;;;7.23;;
8086;SDS011;4086;54.412;9.980;2023-03-01T06:50:28;14.63;;;6.87;;
8086;SDS011;4086;54.412;9.980;2023-03-01T06:52:55;12.30;;;7.47;;
8086;SDS011;4086;54.412;9.980;2023-03-01T06:55:21;16.30;;;7.73;;
8086;SDS011;4086;54.412;9.980;2023-03-01T06:57:47;12.47;;;6.30;;
8086;SDS011;4086;54.412;9.980;2023-03-01T07:00:16;15.67;;;6.20;;
8086;SDS011;4086;54.412;9.980;2023-03-01T07:02:44;11.20;;;6.27;;
8086;SDS011;4086;54.412;9.980;2023-03-01T07:05:10;11.10;;;6.37;;
8086;SDS011;4086;54.412;9.980;2023-03-01T07:07:36;14.97;;;6.47;;
8086;SDS011;4086;54.412;9.980;2023-03-01T07:10:03;23.47;;;6.57;;
8086;SDS011;4086;54.412;9.980;2023-03-01T07:12:30;23.90;;;6.60;;
8086;SDS011;4086;54.412;9.980;2023-03-01T07:14:57;11.67;;;6.60;;
8086;SDS011;4086;54.412;9.980;2023-03-01T07:17:24;14.87;;;6.37;;
8086;SDS011;4086;54.412;9.980;2023-03-01T07:19:51;16.23;;;5.93;;
8086;SDS011;4086;54.412;9.980;2023-03-01T07:22:17;36.60;;;5.97;;
8086;SDS011;4086;54.412;9.980;2023-03-01T07:24:43;10.60;;;6.03;;
8086;SDS011;4086;54.412;9.980;2023-03-01T07:27:10;9.73;;;5.50;;
8086;SDS011;4086;54.412;9.980;2023-03-01T07:29:36;9.60;;;5.43;;
8086;SDS011;4086;54.412;9.980;2023-03-01T07:32:03;8.23;;;5.20;;
8086;SDS011;4086;54.412;9.980;2023-03-01T07:34:31;13.23;;;5.40;;
8086;SDS011;4086;54.412;9.980;2023-03-01T07:36:57;10.73;;;5.80;;
8086;SDS011;4086;54.412;9.980;2023-03-01T07:39:25;8.40;;;5.60;;
8086;SDS011;4086;54.412;9.980;2023-03-01T07:41:51;9.57;;;5.67;;
8086;SDS011;4086;54.412;9.980;2023-03-01T07:44:18;8.60;;;6.07;;
8086;SDS011;4086;54.412;9.980;2023-03-01T07:46:45;14.00;;;5.87;;
8086;SDS011;4086;54.412;9.980;2023-03-01T07:49:11;7.07;;;5.23;;
8086;SDS011;4086;54.412;9.980;2023-03-01T07:51:39;9.57;;;5.90;;
8086;SDS011;4086;54.412;9.980;2023-03-01T07:54:05;11.77;;;5.70;;
8086;SDS011;4086;54.412;9.980;2023-03-01T07:56:31;8.57;;;5.73;;
8086;SDS011;4086;54.412;9.980;2023-03-01T07:58:58;8.20;;;5.33;;
8086;SDS011;4086;54.412;9.980;2023-03-01T08:01:25;12.00;;;6.00;;
8086;SDS011;4086;54.412;9.980;2023-03-01T08:03:51;17.97;;;5.53;;
8086;SDS011;4086;54.412;9.980;2023-03-01T08:06:17;9.97;;;5.63;;
8086;SDS011;4086;54.412;9.980;2023-03-01T08:08:45;7.03;;;5.33;;
8086;SDS011;4086;54.412;9.980;2023-03-01T08:11:12;7.90;;;5.47;;
8086;SDS011;4086;54.412;9.980;2023-03-01T08:13:40;9.00;;;5.57;;
8086;SDS011;4086;54.412;9.980;2023-03-01T08:16:08;12.80;;;6.10;;
8086;SDS011;4086;54.412;9.980;2023-03-01T08:18:36;10.13;;;6.53;;
8086;SDS011;4086;54.412;9.980;2023-03-01T08:21:03;12.00;;;6.50;;
8086;SDS011;4086;54.412;9.980;2023-03-01T08:23:29;22.60;;;6.30;;
8086;SDS011;4086;54.412;9.980;2023-03-01T08:26:03;15.60;;;6.40;;
8086;SDS011;4086;54.412;9.980;2023-03-01T08:28:31;10.97;;;6.77;;
8086;SDS011;4086;54.412;9.980;2023-03-01T08:30:58;18.17;;;6.57;;
8086;SDS011;4086;54.412;9.980;2023-03-01T08:33:24;16.70;;;6.57;;
8086;SDS011;4086;54.412;9.980;2023-03-01T08:35:51;10.30;;;6.63;;
8086;SDS011;4086;54.412;9.980;2023-03-01T08:38:17;9.20;;;6.37;;
8086;SDS011;4086;54.412;9.980;2023-03-01T08:40:43;8.90;;;6.30;;
8086;SDS011;4086;54.412;9.980;2023-03-01T08:43:11;10.87;;;6.53;;
8086;SDS011;4086;54.412;9.980;2023-03-01T08:45:37;7.13;;;5.73;;
8086;SDS011;4086;54.412;9.980;2023-03-01T08:48:04;17.43;;;7.27;;
8086;SDS011;4086;54.412;9.980;2023-03-01T08:50:30;10.57;;;5.73;;
8086;SDS011;4086;54.412;9.980;2023-03-01T08:52:57;8.17;;;6.37;;
8086;SDS011;4086;54.412;9.980;2023-03-01T08:55:23;8.07;;;6.33;;
8086;SDS011;4086;54.412;9.980;2023-03-01T08:57:50;9.67;;;6.03;;
8086;SDS011;4086;54.412;9.980;2023-03-01T09:00:18;9.47;;;6.47;;
8086;SDS011;4086;54.412;9.980;2023-03-01T09:02:45;8.10;;;6.50;;
8086;SDS011;4086;54.412;9.980;2023-03-01T09:05:11;7.37;;;5.70;;
8086;SDS011;4086;54.412;9.980;2023-03-01T09:07:37;11.27;;;5.60;;
8086;SDS011;4086;54.412;9.980;2023-03-01T09:10:05;7.03;;;5.67;;
8086;SDS011;4086;54.412;9.980;2023-03-01T09:12:31;6.17;;;5.10;;
8086;SDS011;4086;54.412;9.980;2023-03-01T09:14:58;6.53;;;5.17;;
8086;SDS011;4086;54.412;9.980;2023-03-01T09:17:25;6.13;;;5.10;;
8086;SDS011;4086;54.412;9.980;2023-03-01T09:19:52;6.70;;;5.47;;
8086;SDS011;4086;54.412;9.980;2023-03-01T09:22:18;5.63;;;4.83;;
8086;SDS011;4086;54.412;9.980;2023-03-01T09:24:45;5.40;;;4.73;;
8086;SDS011;4086;54.412;9.980;2023-03-01T09:27:11;5.37;;;4.60;;
8086;SDS011;4086;54.412;9.980;2023-03-01T09:29:39;7.23;;;5.50;;
8086;SDS011;4086;54.412;9.980;2023-03-01T09:32:06;6.63;;;5.20;;
8086;SDS011;4086;54.412;9.980;2023-03-01T09:34:34;6.63;;;5.07;;
8086;SDS011;4086;54.412;9.980;2023-03-01T09:37:21;5.77;;;4.77;;
8086;SDS011;4086;54.412;9.980;2023-03-01T09:39:47;4.97;;;4.47;;
8086;SDS011;4086;54.412;9.980;2023-03-01T09:42:13;9.20;;;4.60;;
8086;SDS011;4086;54.412;9.980;2023-03-01T09:44:42;7.30;;;5.33;;
8086;SDS011;4086;54.412;9.980;2023-03-01T09:47:12;6.43;;;5.53;;
8086;SDS011;4086;54.412;9.980;2023-03-01T09:49:44;10.83;;;5.70;;
8086;SDS011;4086;54.412;9.980;2023-03-01T09:52:18;7.70;;;5.60;;
8086;SDS011;4086;54.412;9.980;2023-03-01T09:54:48;8.00;;;5.10;;
8086;SDS011;4086;54.412;9.980;2023-03-01T09:57:17;5.97;;;5.07;;
8086;SDS011;4086;54.412;9.980;2023-03-01T09:59:56;7.00;;;4.80;;
8086;SDS011;4086;54.412;9.980;2023-03-01T10:02:32;6.57;;;5.33;;
8086;SDS011;4086;54.412;9.980;2023-03-01T10:05:09;4.83;;;4.33;;
8086;SDS011;4086;54.412;9.980;2023-03-01T10:07:44;5.20;;;4.40;;
8086;SDS011;4086;54.412;9.980;2023-03-01T10:10:16;6.40;;;5.00;;
8086;SDS011;4086;54.412;9.980;2023-03-01T10:12:47;9.30;;;5.30;;
8086;SDS011;4086;54.412;9.980;2023-03-01T10:15:15;6.47;;;4.60;;
8086;SDS011;4086;54.412;9.980;2023-03-01T10:17:44;5.93;;;4.90;;
8086;SDS011;4086;54.412;9.980;2023-03-01T10:20:16;5.30;;;4.30;;
8086;SDS011;4086;54.412;9.980;2023-03-01T10:22:45;6.10;;;5.30;;
8086;SDS011;4086;54.412;9.980;2023-03-01T10:25:15;5.43;;;4.50;;
8086;SDS011;4086;54.412;9.980;2023-03-01T10:27:46;5.90;;;4.83;;
8086;SDS011;4086;54.412;9.980;2023-03-01T10:30:19;6.60;;;5.23;;
8086;SDS011;4086;54.412;9.980;2023-03-01T10:32:48;4.93;;;4.43;;
8086;SDS011;4086;54.412;9.980;2023-03-01T10:35:18;5.70;;;5.10;;
8086;SDS011;4086;54.412;9.980;2023-03-01T10:37:56;4.83;;;4.40;;
8086;SDS011;4086;54.412;9.980;2023-03-01T10:40:24;5.13;;;4.63;;
8086;SDS011;4086;54.412;9.980;2023-03-01T10:42:50;6.00;;;4.53;;
8086;SDS011;4086;54.412;9.980;2023-03-01T10:45:23;5.37;;;4.80;;
8086;SDS011;4086;54.412;9.980;2023-03-01T10:48:03;6.67;;;4.93;;
8086;SDS011;4086;54.412;9.980;2023-03-01T10:50:32;5.93;;;4.97;;
8086;SDS011;4086;54.412;9.980;2023-03-01T10:52:59;4.87;;;4.37;;
8086;SDS011;4086;54.412;9.980;2023-03-01T10:55:29;5.53;;;4.57;;
8086;SDS011;4086;54.412;9.980;2023-03-01T10:58:07;7.37;;;5.47;;
8086;SDS011;4086;54.412;9.980;2023-03-01T11:00:45;6.03;;;4.87;;
8086;SDS011;4086;54.412;9.980;2023-03-01T11:03:14;6.10;;;4.87;;
8086;SDS011;4086;54.412;9.980;2023-03-01T11:05:51;7.53;;;4.77;;
8086;SDS011;4086;54.412;9.980;2023-03-01T11:08:29;5.00;;;4.30;;
8086;SDS011;4086;54.412;9.980;2023-03-01T11:11:03;5.73;;;5.00;;
8086;SDS011;4086;54.412;9.980;2023-03-01T11:13:31;5.83;;;4.80;;
8086;SDS011;4086;54.412;9.980;2023-03-01T11:15:58;5.23;;;4.40;;
8086;SDS011;4086;54.412;9.980;2023-03-01T11:18:26;5.53;;;5.00;;
8086;SDS011;4086;54.412;9.980;2023-03-01T11:20:53;6.47;;;4.80;;
8086;SDS011;4086;54.412;9.980;2023-03-01T11:23:21;5.70;;;4.90;;
8086;SDS011;4086;54.412;9.980;2023-03-01T11:25:49;6.60;;;5.00;;
8086;SDS011;4086;54.412;9.980;2023-03-01T11:28:19;5.77;;;4.70;;
8086;SDS011;4086;54.412;9.980;2023-03-01T11:30:48;7.07;;;4.83;;
8086;SDS011;4086;54.412;9.980;2023-03-01T11:33:17;4.33;;;3.93;;
8086;SDS011;4086;54.412;9.980;2023-03-01T11:35:47;5.03;;;4.37;;
8086;SDS011;4086;54.412;9.980;2023-03-01T11:38:18;4.27;;;3.87;;
8086;SDS011;4086;54.412;9.980;2023-03-01T11:40:48;5.63;;;4.60;;
8086;SDS011;4086;54.412;9.980;2023-03-01T11:43:19;5.50;;;4.70;;
8086;SDS011;4086;54.412;9.980;2023-03-01T11:46:02;5.33;;;4.20;;
8086;SDS011;4086;54.412;9.980;2023-03-01T11:48:46;5.37;;;4.27;;
8086;SDS011;4086;54.412;9.980;2023-03-01T11:51:20;5.63;;;3.97;;
8086;SDS011;4086;54.412;9.980;2023-03-01T11:56:35;5.17;;;4.03;;
8086;SDS011;4086;54.412;9.980;2023-03-01T11:59:13;5.13;;;4.63;;
8086;SDS011;4086;54.412;9.980;2023-03-01T12:01:51;5.53;;;4.80;;
8086;SDS011;4086;54.412;9.980;2023-03-01T12:07:20;6.70;;;5.20;;
8086;SDS011;4086;54.412;9.980;2023-03-01T12:09:58;6.37;;;5.47;;
8086;SDS011;4086;54.412;9.980;2023-03-01T12:12:36;5.37;;;4.87;;
8086;SDS011;4086;54.412;9.980;2023-03-01T12:15:22;5.20;;;4.70;;
8086;SDS011;4086;54.412;9.980;2023-03-01T12:18:18;5.37;;;4.60;;
8086;SDS011;4086;54.412;9.980;2023-03-01T12:20:58;4.73;;;4.23;;
8086;SDS011;4086;54.412;9.980;2023-03-01T12:23:39;5.60;;;4.63;;
8086;SDS011;4086;54.412;9.980;2023-03-01T12:26:17;6.27;;;4.87;;
8086;SDS011;4086;54.412;9.980;2023-03-01T12:28:51;6.47;;;5.33;;
8086;SDS011;4086;54.412;9.980;2023-03-01T12:31:31;5.27;;;4.30;;
8086;SDS011;4086;54.412;9.980;2023-03-01T12:34:03;6.93;;;5.13;;
8086;SDS011;4086;54.412;9.980;2023-03-01T12:36:39;5.07;;;4.50;;
8086;SDS011;4086;54.412;9.980;2023-03-01T12:39:20;5.37;;;4.80;;
8086;SDS011;4086;54.412;9.980;2023-03-01T12:41:55;5.70;;;4.80;;
8086;SDS011;4086;54.412;9.980;2023-03-01T12:44:33;6.70;;;5.43;;
8086;SDS011;4086;54.412;9.980;2023-03-01T12:47:19;8.20;;;5.80;;
8086;SDS011;4086;54.412;9.980;2023-03-01T12:49:54;7.30;;;5.90;;
8086;SDS011;4086;54.412;9.980;2023-03-01T12:52:23;5.73;;;5.10;;
8086;SDS011;4086;54.412;9.980;2023-03-01T12:54:53;8.70;;;6.63;;
8086;SDS011;4086;54.412;9.980;2023-03-01T12:57:24;8.00;;;6.60;;
8086;SDS011;4086;54.412;9.980;2023-03-01T13:00:05;6.93;;;5.60;;
8086;SDS011;4086;54.412;9.980;2023-03-01T13:02:39;9.07;;;6.73;;
8086;SDS011;4086;54.412;9.980;2023-03-01T13:05:16;7.20;;;5.83;;
8086;SDS011;4086;54.412;9.980;2023-03-01T13:07:51;7.93;;;5.93;;
8086;SDS011;4086;54.412;9.980;2023-03-01T13:10:21;11.83;;;5.47;;
8086;SDS011;4086;54.412;9.980;2023-03-01T13:13:00;6.87;;;5.77;;
8086;SDS011;4086;54.412;9.980;2023-03-01T13:15:32;7.43;;;5.43;;
8086;SDS011;4086;54.412;9.980;2023-03-01T13:18:00;6.13;;;5.10;;
8086;SDS011;4086;54.412;9.980;2023-03-01T13:20:30;5.93;;;5.00;;
8086;SDS011;4086;54.412;9.980;2023-03-01T13:23:02;5.57;;;4.80;;
8086;SDS011;4086;54.412;9.980;2023-03-01T13:25:32;6.43;;;5.10;;
8086;SDS011;4086;54.412;9.980;2023-03-01T13:31:10;6.47;;;5.30;;
8086;SDS011;4086;54.412;9.980;2023-03-01T13:33:45;6.50;;;5.37;;
8086;SDS011;4086;54.412;9.980;2023-03-01T13:36:25;6.43;;;5.57;;
8086;SDS011;4086;54.412;9.980;2023-03-01T13:39:27;7.57;;;6.03;;
8086;SDS011;4086;54.412;9.980;2023-03-01T13:41:58;6.27;;;5.13;;
8086;SDS011;4086;54.412;9.980;2023-03-01T13:44:26;21.13;;;5.70;;
8086;SDS011;4086;54.412;9.980;2023-03-01T13:46:57;6.10;;;5.03;;
8086;SDS011;4086;54.412;9.980;2023-03-01T13:49:26;7.37;;;5.20;;
8086;SDS011;4086;54.412;9.980;2023-03-01T13:51:55;6.93;;;5.67;;
8086;SDS011;4086;54.412;9.980;2023-03-01T13:54:24;6.70;;;5.50;;
8086;SDS011;4086;54.412;9.980;2023-03-01T13:56:51;6.13;;;5.13;;
8086;SDS011;4086;54.412;9.980;2023-03-01T13:59:19;12.70;;;8.90;;
8086;SDS011;4086;54.412;9.980;2023-03-01T14:01:51;9.93;;;6.20;;
8086;SDS011;4086;54.412;9.980;2023-03-01T14:04:19;12.23;;;8.33;;
8086;SDS011;4086;54.412;9.980;2023-03-01T14:06:47;19.17;;;10.07;;
8086;SDS011;4086;54.412;9.980;2023-03-01T14:09:16;15.87;;;8.60;;
8086;SDS011;4086;54.412;9.980;2023-03-01T14:11:57;24.40;;;11.90;;
8086;SDS011;4086;54.412;9.980;2023-03-01T14:14:31;21.93;;;11.40;;
8086;SDS011;4086;54.412;9.980;2023-03-01T14:17:06;21.27;;;11.63;;
8086;SDS011;4086;54.412;9.980;2023-03-01T14:19:43;14.60;;;9.07;;
8086;SDS011;4086;54.412;9.980;2023-03-01T14:22:13;9.67;;;7.20;;
8086;SDS011;4086;54.412;9.980;2023-03-01T14:24:46;9.93;;;7.27;;
8086;SDS011;4086;54.412;9.980;2023-03-01T14:27:14;8.40;;;6.93;;
8086;SDS011;4086;54.412;9.980;2023-03-01T14:29:41;8.87;;;7.17;;
8086;SDS011;4086;54.412;9.980;2023-03-01T14:32:11;8.37;;;6.30;;
8086;SDS011;4086;54.412;9.980;2023-03-01T14:34:42;8.30;;;6.27;;
8086;SDS011;4086;54.412;9.980;2023-03-01T14:37:10;6.73;;;5.47;;
8086;SDS011;4086;54.412;9.980;2023-03-01T14:39:37;8.53;;;6.37;;
8086;SDS011;4086;54.412;9.980;2023-03-01T14:42:05;8.20;;;6.30;;
8086;SDS011;4086;54.412;9.980;2023-03-01T14:44:31;9.57;;;6.87;;
8086;SDS011;4086;54.412;9.980;2023-03-01T14:47:02;8.67;;;6.07;;
8086;SDS011;4086;54.412;9.980;2023-03-01T14:49:30;10.23;;;7.37;;
8086;SDS011;4086;54.412;9.980;2023-03-01T14:51:58;10.20;;;7.40;;
8086;SDS011;4086;54.412;9.980;2023-03-01T14:54:28;10.87;;;7.53;;
8086;SDS011;4086;54.412;9.980;2023-03-01T14:56:58;8.23;;;6.53;;
8086;SDS011;4086;54.412;9.980;2023-03-01T14:59:26;9.23;;;7.00;;
8086;SDS011;4086;54.412;9.980;2023-03-01T15:01:55;7.97;;;6.43;;
8086;SDS011;4086;54.412;9.980;2023-03-01T15:04:22;10.80;;;7.17;;
8086;SDS011;4086;54.412;9.980;2023-03-01T15:06:50;10.20;;;7.40;;
8086;SDS011;4086;54.412;9.980;2023-03-01T15:09:18;10.83;;;7.40;;
8086;SDS011;4086;54.412;9.980;2023-03-01T15:11:45;11.53;;;7.77;;
8086;SDS011;4086;54.412;9.980;2023-03-01T15:17:20;10.80;;;7.67;;
8086;SDS011;4086;54.412;9.980;2023-03-01T15:19:49;9.93;;;7.33;;
8086;SDS011;4086;54.412;9.980;2023-03-01T15:22:15;13.83;;;9.70;;
8086;SDS011;4086;54.412;9.980;2023-03-01T15:24:43;18.20;;;12.43;;
8086;SDS011;4086;54.412;9.980;2023-03-01T15:27:14;21.60;;;14.80;;
8086;SDS011;4086;54.412;9.980;2023-03-01T15:29:48;21.17;;;13.10;;
8086;SDS011;4086;54.412;9.980;2023-03-01T15:32:26;21.27;;;13.93;;